Time;durP1;ratioP1;P1;durP2;ratioP2;P2;SDS_P1;SDS_P2;PMS_P1;PMS_P2;Temp;Humidity;BMP_temperature;BMP_pressure;BME280_temperature;BME280_humidity;BME280_pressure;Samples;Min_cycle;Max_cycle;Signal;HPM_P1;HPM_P2
2021/11/25 00:01:59;;;;;;;14.55;8.85;;;6.90;98.40;;;4.77;100.00;100369.53;4988609;28;20109;-87
2021/11/25 00:04:26;;;;;;;15.55;9.27;;;6.80;98.30;;;4.82;100.00;100369.94;4986770;28;20558;-86
2021/11/25 00:06:54;;;;;;;21.23;11.25;;;6.90;98.50;;;4.81;100.00;100362.84;4987014;28;20132;-86
2021/11/25 00:09:22;;;;;;;14.88;9.20;;;6.90;98.30;;;4.85;100.00;100356.97;4986880;28;20096;-87
2021/11/25 00:11:50;;;;;;;13.40;8.98;;;6.90;98.40;;;4.88;100.00;100355.84;4988117;28;20120;-86
2021/11/25 00:14:17;;;;;;;13.77;9.10;;;6.90;98.30;;;4.84;100.00;100355.28;4987043;28;20610;-87
2021/11/25 00:16:46;;;;;;;15.30;8.55;;;6.90;98.20;;;4.85;100.00;100353.44;4986696;28;20039;-87
2021/11/25 00:19:14;;;;;;;12.27;8.38;;;6.90;98.40;;;4.79;100.00;100337.88;4985887;28;20054;-87
2021/11/25 00:21:42;;;;;;;18.58;8.73;;;6.90;98.40;;;4.78;100.00;100337.03;4986599;28;20451;-87
2021/11/25 00:24:09;;;;;;;14.45;8.85;;;6.90;98.40;;;4.82;100.00;100334.88;4986577;28;20046;-87
2021/11/25 00:26:38;;;;;;;13.38;8.95;;;6.90;98.20;;;4.90;100.00;100334.97;4986363;28;20588;-87
2021/11/25 00:29:07;;;;;;;14.88;8.45;;;6.90;97.90;;;4.83;100.00;100328.47;4986942;28;20046;-87
2021/11/25 00:31:35;;;;;;;15.77;8.93;;;6.90;98.00;;;4.83;100.00;100328.47;4986216;28;20113;-86
2021/11/25 00:34:02;;;;;;;17.30;8.35;;;6.90;98.20;;;4.81;100.00;100319.69;4987975;28;20516;-87
2021/11/25 00:36:29;;;;;;;18.05;8.88;;;6.90;98.10;;;4.80;100.00;100315.31;4986670;28;20412;-88
2021/11/25 00:38:57;;;;;;;14.38;8.65;;;6.90;98.00;;;4.83;100.00;100312.31;4986431;28;20070;-87
2021/11/25 00:41:24;;;;;;;13.50;8.02;;;6.90;98.10;;;4.85;100.00;100304.91;4986589;28;20108;-88
2021/11/25 00:43:53;;;;;;;13.57;8.82;;;6.90;98.20;;;4.80;100.00;100302.69;4986468;28;20050;-86
2021/11/25 00:46:21;;;;;;;13.75;8.98;;;6.90;98.10;;;4.82;100.00;100303.38;4987772;28;20516;-87
2021/11/25 00:48:48;;;;;;;14.75;8.38;;;6.90;98.20;;;4.85;100.00;100303.03;4987448;28;20422;-87
2021/11/25 00:51:16;;;;;;;15.27;8.05;;;6.90;98.30;;;4.85;100.00;100299.50;4986292;28;20105;-86
2021/11/25 00:53:43;;;;;;;12.60;7.88;;;6.90;98.10;;;4.86;100.00;100298.53;4986338;28;20129;-87
2021/11/25 00:56:10;;;;;;;13.20;7.80;;;6.90;98.20;;;4.89;100.00;100298.19;4986376;28;20825;-87
2021/11/25 00:58:38;;;;;;;12.15;8.00;;;6.90;98.00;;;4.84;100.00;100297.84;4986431;28;20154;-86
2021/11/25 01:01:07;;;;;;;14.95;7.85;;;6.90;97.90;;;4.84;100.00;100287.88;4986279;28;20042;-87
2021/11/25 01:03:34;;;;;;;12.05;7.50;;;6.90;97.80;;;4.85;100.00;100286.88;4987475;28;20092;-86
2021/11/25 01:06:01;;;;;;;19.38;7.72;;;6.90;97.70;;;4.84;100.00;100287.03;4986051;28;20058;-88
2021/11/25 01:08:29;;;;;;;12.60;7.97;;;6.90;97.70;;;4.81;100.00;100274.69;4985876;28;20042;-88
2021/11/25 01:10:57;;;;;;;13.60;8.57;;;6.90;97.60;;;4.83;100.00;100282.63;4987069;28;20046;-87
2021/11/25 01:13:24;;;;;;;13.43;8.13;;;6.90;97.40;;;4.84;99.71;100284.34;4986020;28;20043;-87
2021/11/25 01:15:52;;;;;;;12.95;8.32;;;7.00;97.20;;;4.84;99.64;100293.28;4985772;28;20141;-88
2021/11/25 01:18:22;;;;;;;13.60;8.18;;;6.90;97.20;;;4.82;100.00;100289.88;4985751;28;20058;-87
2021/11/25 01:20:51;;;;;;;14.63;8.20;;;6.90;97.20;;;4.80;100.00;100291.88;4986026;28;20057;-87
2021/11/25 01:23:22;;;;;;;13.63;7.95;;;6.90;97.20;;;4.87;100.00;100289.41;4985522;28;20054;-87
2021/11/25 01:25:51;;;;;;;12.45;8.52;;;6.90;97.40;;;4.87;100.00;100292.13;4985484;28;20092;-87
2021/11/25 01:28:18;;;;;;;14.45;8.20;;;6.90;97.40;;;4.86;100.00;100295.81;4985428;28;20501;-87
2021/11/25 01:30:50;;;;;;;12.55;7.60;;;6.90;97.40;;;4.79;100.00;100290.19;4985656;28;20050;-87
2021/11/25 01:33:20;;;;;;;12.95;7.97;;;6.90;97.30;;;4.80;100.00;100296.44;4985418;28;20698;-86
2021/11/25 01:35:49;;;;;;;14.60;8.10;;;6.90;97.40;;;4.82;100.00;100289.88;4985984;28;20090;-87
2021/11/25 01:38:17;;;;;;;12.68;8.13;;;6.90;97.60;;;4.82;100.00;100291.75;4985846;28;20050;-87
2021/11/25 01:40:46;;;;;;;13.10;7.80;;;6.90;97.60;;;4.79;100.00;100286.66;4985473;28;20047;-87
2021/11/25 01:43:14;;;;;;;14.07;8.38;;;6.90;97.50;;;4.75;100.00;100282.56;4985376;28;20077;-87
2021/11/25 01:45:42;;;;;;;13.23;8.90;;;6.90;97.40;;;4.75;100.00;100274.47;4985486;28;20145;-88
2021/11/25 01:48:09;;;;;;;13.65;9.00;;;6.90;97.30;;;4.74;100.00;100281.72;4985403;28;20128;-87
2021/11/25 01:50:38;;;;;;;15.40;8.65;;;6.90;97.20;;;4.76;100.00;100289.63;4984877;28;20105;-88
2021/11/25 01:53:07;;;;;;;16.05;9.25;;;6.90;97.30;;;4.76;100.00;100274.34;4984913;28;20068;-87
2021/11/25 01:55:35;;;;;;;14.00;8.50;;;6.80;97.40;;;4.74;100.00;100270.06;5004461;28;20057;-87
2021/11/25 01:58:02;;;;;;;14.30;8.32;;;6.90;97.50;;;4.72;100.00;100272.91;5006568;28;20728;-87
2021/11/25 02:00:37;;;;;;;19.40;9.38;;;6.90;97.50;;;4.74;100.00;100264.69;5004897;28;20045;-87
2021/11/25 02:03:06;;;;;;;13.68;8.85;;;6.90;97.30;;;4.78;100.00;100260.69;5004774;28;20045;-87
2021/11/25 02:05:35;;;;;;;14.95;8.40;;;6.90;97.40;;;4.78;100.00;100266.94;5004555;28;20873;-87
2021/11/25 02:08:06;;;;;;;19.10;9.23;;;6.90;97.40;;;4.77;100.00;100264.38;5004555;28;20135;-87
2021/11/25 02:10:36;;;;;;;13.00;8.27;;;6.90;97.50;;;4.70;100.00;100265.00;5004697;28;20582;-87
2021/11/25 02:13:04;;;;;;;14.85;8.93;;;6.90;97.60;;;4.71;100.00;100260.47;5005795;28;20041;-87
2021/11/25 02:15:36;;;;;;;14.38;8.80;;;6.90;97.50;;;4.68;100.00;100250.84;5005930;28;20046;-87
2021/11/25 02:18:05;;;;;;;13.80;9.00;;;6.80;97.30;;;4.71;100.00;100249.66;5005895;28;20066;-88
2021/11/25 02:20:35;;;;;;;13.48;8.65;;;6.90;97.40;;;4.68;100.00;100242.75;5005443;28;20117;-87
2021/11/25 02:23:02;;;;;;;15.10;8.45;;;6.80;97.30;;;4.66;100.00;100233.97;5004384;28;20097;-87
2021/11/25 02:25:30;;;;;;;13.02;8.60;;;6.90;97.30;;;4.73;100.00;100227.97;5005464;28;20511;-87
2021/11/25 02:27:58;;;;;;;14.52;7.97;;;6.90;97.50;;;4.69;100.00;100233.66;4987397;28;20095;-86
2021/11/25 02:30:25;;;;;;;15.65;8.82;;;6.90;97.50;;;4.68;100.00;100240.06;4985143;28;20655;-88
2021/11/25 02:32:54;;;;;;;13.10;8.13;;;6.80;97.20;;;4.65;100.00;100240.34;4984606;28;20100;-87
2021/11/25 02:35:24;;;;;;;13.80;8.55;;;6.80;97.20;;;4.60;100.00;100228.34;4985992;28;20086;-87
2021/11/25 02:37:54;;;;;;;14.90;8.35;;;6.80;97.20;;;4.66;100.00;100235.78;4984777;28;20057;-88
2021/11/25 02:40:26;;;;;;;14.90;8.65;;;6.80;97.30;;;4.69;100.00;100240.91;4985326;28;20050;-88
2021/11/25 02:42:57;;;;;;;11.88;8.05;;;6.80;97.30;;;4.65;100.00;100245.75;4991044;28;20050;-88
2021/11/25 02:45:26;;;;;;;16.77;9.07;;;6.80;97.30;;;4.66;100.00;100242.06;4992513;28;20120;-85
2021/11/25 02:47:55;;;;;;;14.05;9.40;;;6.80;97.40;;;4.69;100.00;100239.03;4991079;28;20057;-87
2021/11/25 02:50:26;;;;;;;13.18;9.05;;;6.80;97.50;;;4.68;100.00;100242.75;4990897;28;20462;-86
2021/11/25 02:52:55;;;;;;;15.27;9.65;;;6.80;97.10;;;4.68;100.00;100240.06;4990803;28;20574;-87
2021/11/25 02:55:22;;;;;;;15.45;9.18;;;6.80;97.20;;;4.71;100.00;100238.88;4992231;28;20065;-87
2021/11/25 02:57:49;;;;;;;14.10;8.98;;;6.80;97.30;;;4.73;100.00;100244.13;4991057;28;20500;-87
2021/11/25 03:00:33;;;;;;;14.05;9.65;;;6.80;97.20;;;4.73;100.00;100238.75;4991002;28;20104;-88
2021/11/25 03:03:04;;;;;;;12.68;8.60;;;6.80;97.20;;;4.68;100.00;100240.06;4990780;28;20065;-87
2021/11/25 03:05:32;;;;;;;12.65;9.45;;;6.80;97.10;;;4.67;100.00;100237.50;4991002;28;20065;-86
2021/11/25 03:08:04;;;;;;;14.73;9.45;;;6.80;97.00;;;4.68;100.00;100229.28;4990952;28;20542;-88
2021/11/25 03:10:37;;;;;;;16.02;9.32;;;6.80;97.10;;;4.74;100.00;100226.94;4990946;28;20054;-87
2021/11/25 03:13:06;;;;;;;14.55;9.23;;;6.80;97.20;;;4.72;100.00;100228.94;4992070;28;20065;-87
2021/11/25 03:15:35;;;;;;;16.77;9.20;;;6.80;97.20;;;4.68;100.00;100218.50;4990562;28;20054;-87
2021/11/25 03:18:03;;;;;;;15.05;9.43;;;6.80;97.30;;;4.66;100.00;100215.09;4990788;28;20069;-87
2021/11/25 03:20:30;;;;;;;15.13;9.73;;;6.80;97.30;;;4.63;100.00;100212.72;4990661;28;20061;-85
2021/11/25 03:22:58;;;;;;;15.57;10.20;;;6.80;97.20;;;4.68;100.00;100206.84;4991991;28;20411;-87
2021/11/25 03:25:26;;;;;;;13.13;8.80;;;6.80;97.10;;;4.66;100.00;100203.47;4990719;28;20158;-86
2021/11/25 03:27:54;;;;;;;15.57;10.50;;;6.80;97.10;;;4.70;100.00;100213.78;4991366;28;20058;-87
2021/11/25 03:30:21;;;;;;;15.77;10.32;;;6.80;97.00;;;4.69;100.00;100209.38;5007417;28;20074;-87
2021/11/25 03:32:49;;;;;;;15.13;10.02;;;6.80;97.10;;;4.64;100.00;100210.84;4990841;28;20066;-87
2021/11/25 03:35:16;;;;;;;15.25;10.27;;;6.80;96.90;;;4.67;100.00;100200.59;4991894;28;20721;-87
2021/11/25 03:37:44;;;;;;;18.08;9.98;;;6.80;97.00;;;4.69;100.00;100201.31;5006874;28;20058;-87
2021/11/25 03:40:12;;;;;;;15.20;9.82;;;6.80;96.90;;;4.70;99.83;100197.63;4990383;28;20090;-87
2021/11/25 03:42:41;;;;;;;15.52;9.63;;;6.80;96.90;;;4.73;99.31;100198.31;4990607;28;20128;-88
2021/11/25 03:45:11;;;;;;;14.38;9.88;;;6.80;96.80;;;4.73;99.24;100192.91;4990663;28;20096;-88
2021/11/25 03:47:41;;;;;;;15.50;9.82;;;6.80;96.60;;;4.69;99.32;100190.53;4992291;28;20047;-87
2021/11/25 03:50:10;;;;;;;13.60;9.30;;;6.80;96.40;;;4.68;99.78;100191.53;5007500;28;20482;-86
2021/11/25 03:52:37;;;;;;;14.13;9.50;;;6.70;96.40;;;4.67;99.89;100184.44;4989804;28;20125;-88
2021/11/25 03:55:06;;;;;;;14.48;9.88;;;6.70;96.70;;;4.66;99.40;100179.19;5004403;28;20058;-87
2021/11/25 03:57:34;;;;;;;13.20;9.38;;;6.70;96.80;;;4.64;99.44;100163.16;4989302;28;20074;-87
2021/11/25 04:00:06;;;;;;;14.30;9.18;;;6.80;96.80;;;4.62;100.00;100165.19;4989250;28;20046;-87
2021/11/25 04:02:41;;;;;;;13.52;9.13;;;6.80;96.70;;;4.62;100.00;100165.19;4989118;28;20060;-87
2021/11/25 04:05:09;;;;;;;13.50;9.13;;;6.70;96.70;;;4.58;99.79;100171.88;4988079;28;20047;-86
2021/11/25 04:07:37;;;;;;;13.65;9.38;;;6.80;96.50;;;4.58;99.51;100168.34;4988335;28;20046;-87
2021/11/25 04:10:06;;;;;;;13.05;9.02;;;6.70;96.50;;;4.60;98.67;100175.28;5002928;28;20153;-86
2021/11/25 04:12:34;;;;;;;15.10;9.73;;;6.70;96.50;;;4.54;99.32;100170.50;4986955;28;20058;-87
2021/11/25 04:15:05;;;;;;;15.52;9.25;;;6.70;96.20;;;4.53;100.00;100171.50;4986554;28;20494;-87
2021/11/25 04:17:33;;;;;;;14.85;9.38;;;6.70;96.40;;;4.53;99.44;100160.72;4987047;28;20053;-87
2021/11/25 04:20:00;;;;;;;14.88;9.65;;;6.80;96.40;;;4.58;99.21;100161.09;4987201;28;20058;-86
2021/11/25 04:22:28;;;;;;;14.00;9.30;;;6.70;96.40;;;4.56;99.84;100163.09;5003702;28;20559;-87
2021/11/25 04:24:56;;;;;;;17.50;9.05;;;6.70;96.40;;;4.57;100.00;100162.13;4988135;28;20096;-87
2021/11/25 04:27:24;;;;;;;16.73;9.93;;;6.70;96.60;;;4.60;100.00;100155.56;4988471;28;20129;-87
2021/11/25 04:29:58;;;;;;;15.52;9.52;;;6.70;96.60;;;4.57;100.00;100156.72;4986688;28;20053;-86
2021/11/25 04:35:31;;;;;;;14.23;9.02;;;6.70;96.80;;;4.57;100.00;100155.88;4987836;28;20053;-87
2021/11/25 04:38:01;;;;;;;15.90;10.48;;;6.70;96.90;;;4.57;100.00;100162.13;4986596;28;20054;-87
2021/11/25 04:40:31;;;;;;;15.88;9.75;;;6.70;96.90;;;4.54;100.00;100157.03;4986553;28;20492;-88
2021/11/25 04:42:58;;;;;;;17.75;10.52;;;6.70;96.90;;;4.55;100.00;100147.97;4986510;28;20137;-87
2021/11/25 04:45:26;;;;;;;14.90;9.75;;;6.70;96.80;;;4.55;100.00;100139.88;4987437;28;20046;-86
2021/11/25 04:47:54;;;;;;;16.02;9.82;;;6.70;96.90;;;4.51;100.00;100146.53;4986928;28;20074;-87
2021/11/25 04:50:22;;;;;;;18.08;9.57;;;6.70;96.80;;;4.50;100.00;100140.31;4987583;28;20085;-87
2021/11/25 04:52:50;;;;;;;16.10;10.02;;;6.70;96.90;;;4.45;100.00;100139.09;4987966;28;20056;-87
2021/11/25 04:55:19;;;;;;;16.52;9.30;;;6.70;97.00;;;4.41;100.00;100135.00;4986425;28;20046;-87
2021/11/25 04:57:46;;;;;;;16.23;10.50;;;6.70;96.80;;;4.29;100.00;100132.53;4986230;28;20054;-86
2021/11/25 05:00:16;;;;;;;15.27;9.88;;;6.70;96.60;;;4.23;100.00;100133.16;5002374;28;20050;-87
2021/11/25 05:02:43;;;;;;;16.58;10.20;;;6.60;96.60;;;4.15;100.00;100135.78;4986003;28;20042;-88
2021/11/25 05:05:13;;;;;;;16.55;10.98;;;6.60;96.60;;;4.01;100.00;100139.00;4985487;28;20065;-86
2021/11/25 05:07:40;;;;;;;15.48;9.88;;;6.50;96.50;;;3.84;100.00;100138.78;4985933;28;20096;-87
2021/11/25 05:10:10;;;;;;;17.38;9.52;;;6.50;96.30;;;3.73;100.00;100128.22;4986881;28;20058;-87
2021/11/25 05:12:38;;;;;;;16.23;10.40;;;6.40;96.20;;;3.66;100.00;100132.53;4986217;28;20070;-88
2021/11/25 05:15:08;;;;;;;19.70;10.77;;;6.30;96.30;;;3.59;100.00;100136.81;4985795;28;20140;-87
2021/11/25 05:17:35;;;;;;;16.52;10.27;;;6.30;96.10;;;3.49;100.00;100140.38;4985913;28;20053;-87
2021/11/25 05:20:05;;;;;;;19.00;10.88;;;6.20;95.90;;;3.49;100.00;100143.06;4986152;28;20081;-87
2021/11/25 05:22:34;;;;;;;16.73;11.32;;;6.10;96.20;;;3.34;100.00;100136.50;4986019;28;20698;-87
2021/11/25 05:25:02;;;;;;;16.88;10.90;;;6.10;96.30;;;3.25;100.00;100140.06;4986106;28;20047;-87
2021/11/25 05:27:30;;;;;;;15.27;10.38;;;5.90;96.20;;;3.15;100.00;100136.56;4987119;28;20129;-88
2021/11/25 05:29:57;;;;;;;15.32;9.98;;;5.90;96.20;;;3.04;100.00;100146.47;4987287;28;20117;-87
2021/11/25 05:32:24;;;;;;;19.80;9.63;;;5.90;96.10;;;2.93;100.00;100146.63;4985686;28;20069;-87
2021/11/25 05:34:52;;;;;;;18.77;10.63;;;5.70;96.00;;;2.87;100.00;100147.22;4985561;28;20042;-87
2021/11/25 05:37:20;;;;;;;16.17;9.90;;;5.70;96.20;;;2.82;100.00;100158.41;4985604;28;20120;-87
2021/11/25 05:39:49;;;;;;;16.33;10.00;;;5.70;96.30;;;2.78;100.00;100161.50;4985676;28;20420;-88
2021/11/25 05:42:19;;;;;;;16.38;10.40;;;5.60;96.30;;;2.68;100.00;100151.63;4984731;28;20414;-88
2021/11/25 05:44:46;;;;;;;17.60;11.05;;;5.50;96.30;;;2.64;100.00;100144.00;4985588;28;20061;-87
2021/11/25 05:47:14;;;;;;;17.63;10.63;;;5.40;96.40;;;2.69;100.00;100149.81;4985857;28;20050;-89
2021/11/25 05:49:42;;;;;;;17.77;10.68;;;5.40;96.60;;;2.65;100.00;100146.56;4989759;28;20156;-89
2021/11/25 05:52:10;;;;;;;19.95;11.18;;;5.40;96.90;;;2.65;100.00;100151.09;4985679;28;20054;-89
2021/11/25 05:54:37;;;;;;;17.88;10.98;;;5.30;97.00;;;2.64;100.00;100149.38;4985369;28;20460;-88
2021/11/25 05:57:07;;;;;;;21.02;11.25;;;5.30;97.00;;;2.59;100.00;100144.44;4985501;28;20046;-88
2021/11/25 05:59:34;;;;;;;18.60;10.77;;;5.20;97.00;;;2.55;100.00;100140.31;4985007;28;20776;-88
2021/11/25 06:02:03;;;;;;;19.65;10.52;;;5.20;97.10;;;2.50;100.00;100137.22;4985423;28;20054;-89
2021/11/25 06:04:31;;;;;;;19.45;11.43;;;5.20;97.00;;;2.43;100.00;100136.94;4985465;28;20116;-89
2021/11/25 06:06:58;;;;;;;16.33;10.75;;;5.20;97.00;;;2.39;100.00;100129.31;4985308;28;20054;-88
2021/11/25 06:09:25;;;;;;;18.50;10.70;;;5.10;97.10;;;2.32;100.00;100124.50;4985854;28;20054;-89
2021/11/25 06:11:53;;;;;;;20.55;11.18;;;5.10;96.90;;;2.26;100.00;100130.44;4985295;28;20120;-88
2021/11/25 06:14:22;;;;;;;18.67;11.65;;;5.00;96.80;;;2.14;100.00;100131.56;4985105;28;20054;-89
2021/11/25 06:16:49;;;;;;;23.40;12.57;;;4.90;96.80;;;2.10;100.00;100122.09;4985556;28;20049;-88
2021/11/25 06:19:16;;;;;;;21.70;12.55;;;4.90;97.10;;;2.11;100.00;100126.47;4985359;28;20050;-87
2021/11/25 06:21:46;;;;;;;23.13;12.68;;;4.80;97.10;;;2.08;100.00;100121.38;4984442;28;20046;-86
2021/11/25 06:24:13;;;;;;;19.50;11.80;;;4.80;97.10;;;2.04;100.00;100101.19;4985765;28;20133;-87
2021/11/25 06:26:44;;;;;;;20.77;11.55;;;4.80;97.20;;;2.06;100.00;100101.91;4984142;28;20125;-86
2021/11/25 06:29:11;;;;;;;18.60;11.70;;;4.70;97.40;;;2.04;100.00;100098.50;4985859;28;20137;-87
2021/11/25 06:31:40;;;;;;;21.60;13.02;;;4.70;97.50;;;1.99;100.00;100100.75;4984323;28;20515;-87
2021/11/25 06:34:08;;;;;;;21.60;12.23;;;4.70;97.40;;;1.88;100.00;100109.75;4980899;28;20085;-87
2021/11/25 06:36:38;;;;;;;23.48;14.27;;;4.60;97.10;;;1.73;100.00;100101.25;4981930;28;20042;-86
2021/11/25 06:39:06;;;;;;;27.85;14.55;;;4.60;97.00;;;1.69;100.00;100103.34;4984723;28;20046;-87
2021/11/25 06:41:34;;;;;;;23.50;14.15;;;4.50;97.10;;;1.71;100.00;100098.72;4984485;28;20061;-86
2021/11/25 06:44:01;;;;;;;20.25;13.18;;;4.40;97.30;;;1.62;100.00;100093.31;4984236;28;20467;-87
2021/11/25 06:46:28;;;;;;;23.92;13.82;;;4.40;97.10;;;1.67;100.00;100099.97;4978265;28;20134;-87
2021/11/25 06:48:58;;;;;;;23.77;14.48;;;4.30;97.30;;;1.67;100.00;100102.66;4976590;28;20058;-87
2021/11/25 06:51:27;;;;;;;27.13;15.07;;;4.30;97.40;;;1.66;100.00;100100.13;4983281;28;20054;-87
2021/11/25 06:53:55;;;;;;;25.45;14.23;;;4.30;97.50;;;1.61;100.00;100108.56;4985535;28;20124;-86
2021/11/25 06:56:22;;;;;;;23.27;14.23;;;4.30;97.50;;;1.57;100.00;100109.84;4985277;28;20050;-87
2021/11/25 06:58:52;;;;;;;22.20;13.45;;;4.20;97.30;;;1.60;100.00;100122.97;4984444;28;20762;-87
2021/11/25 07:01:30;;;;;;;24.77;14.45;;;4.20;97.70;;;1.61;100.00;100139.91;4984659;28;20064;-87
2021/11/25 07:03:58;;;;;;;23.85;13.70;;;4.20;97.90;;;1.49;100.00;100140.03;4984321;28;20524;-87
2021/11/25 07:06:26;;;;;;;23.05;13.20;;;4.20;97.80;;;1.44;100.00;100138.72;4985505;28;20049;-87
2021/11/25 07:08:56;;;;;;;24.70;14.18;;;4.10;97.70;;;1.51;100.00;100146.09;4985637;28;20050;-87
2021/11/25 07:11:40;;;;;;;25.63;14.75;;;4.10;97.90;;;1.54;100.00;100159.25;4984264;28;20511;-86
2021/11/25 07:14:09;;;;;;;24.88;13.85;;;4.10;97.90;;;1.51;100.00;100155.97;4985261;28;20085;-87
2021/11/25 07:16:36;;;;;;;26.08;15.27;;;4.10;98.00;;;1.53;100.00;100164.72;4983917;28;20046;-86
2021/11/25 07:19:05;;;;;;;37.38;18.85;;;4.00;98.00;;;1.54;100.00;100159.25;4984319;28;20548;-86
2021/11/25 07:21:33;;;;;;;35.60;19.60;;;4.00;98.30;;;1.59;100.00;100164.19;4984170;28;20054;-87
2021/11/25 07:24:00;;;;;;;44.75;21.08;;;4.00;98.50;;;1.68;100.00;100166.06;4983935;28;20093;-86
2021/11/25 07:26:28;;;;;;;44.60;21.58;;;4.00;98.70;;;1.71;100.00;100167.59;4983426;28;20073;-87
2021/11/25 07:28:57;;;;;;;39.13;20.95;;;4.10;98.90;;;1.73;100.00;100162.94;4987434;28;20053;-87
2021/11/25 07:31:28;;;;;;;35.67;19.25;;;4.10;99.00;;;1.78;100.00;100174.13;4987450;28;20061;-86
2021/11/25 07:33:56;;;;;;;32.03;18.50;;;4.10;99.20;;;1.84;100.00;100178.09;4987763;28;20047;-86
2021/11/25 07:36:26;;;;;;;30.55;17.55;;;4.20;99.50;;;1.91;100.00;100173.91;4988666;28;20574;-88
2021/11/25 07:38:53;;;;;;;30.40;18.85;;;4.20;99.70;;;1.96;100.00;100171.63;4989028;28;20193;-86
2021/11/25 07:41:21;;;;;;;30.15;17.48;;;4.30;99.70;;;1.98;100.00;100168.81;4988539;28;20043;-87
2021/11/25 07:43:48;;;;;;;27.52;16.98;;;4.30;99.90;;;2.02;100.00;100168.41;4988358;28;20054;-86
2021/11/25 07:46:16;;;;;;;28.45;15.68;;;4.30;99.90;;;2.01;100.00;100160.50;4987901;28;20049;-86
2021/11/25 07:48:43;;;;;;;29.83;17.05;;;4.30;99.80;;;2.03;100.00;100164.72;4988038;28;20058;-86
2021/11/25 07:51:19;;;;;;;28.63;17.42;;;4.30;99.90;;;2.10;100.00;100165.03;4988226;28;20113;-89
2021/11/25 07:53:48;;;;;;;30.92;16.35;;;4.40;99.90;;;2.19;100.00;100171.41;4990392;28;20066;-87
2021/11/25 07:56:18;;;;;;;29.80;16.83;;;4.40;99.90;;;2.33;100.00;100158.41;4986833;28;20049;-88
2021/11/25 07:58:46;;;;;;;27.33;16.42;;;4.50;99.90;;;2.45;100.00;100150.22;4968400;28;20065;-88
2021/11/25 08:01:13;;;;;;;28.35;15.98;;;4.50;99.90;;;2.54;100.00;100160.13;4967956;28;20802;-87
2021/11/25 08:03:40;;;;;;;29.98;16.38;;;4.60;99.90;;;2.52;100.00;100162.09;4968283;28;20046;-86
2021/11/25 08:06:08;;;;;;;33.80;17.88;;;4.70;99.90;;;2.57;100.00;100169.72;4986809;28;20618;-86
2021/11/25 08:08:35;;;;;;;33.47;18.45;;;4.60;99.90;;;2.60;100.00;100156.03;4988916;28;20056;-86
2021/11/25 08:11:04;;;;;;;37.22;18.70;;;4.70;99.90;;;2.65;100.00;100153.78;4988601;28;20109;-86
2021/11/25 08:13:32;;;;;;;32.63;18.77;;;4.70;99.90;;;2.62;100.00;100157.56;4978181;28;20049;-85
2021/11/25 08:16:00;;;;;;;41.38;19.50;;;4.80;99.90;;;2.63;100.00;100153.91;4987467;28;20157;-86
2021/11/25 08:18:28;;;;;;;32.05;19.25;;;4.80;99.90;;;2.64;100.00;100157.44;4985008;28;20129;-86
2021/11/25 08:20:56;;;;;;;32.50;19.83;;;4.80;99.90;;;2.62;100.00;100157.56;4999932;28;20066;-87
2021/11/25 08:23:24;;;;;;;36.72;19.40;;;4.80;99.90;;;2.59;100.00;100148.94;4969472;28;20748;-86
2021/11/25 08:25:51;;;;;;;33.28;19.65;;;4.90;99.90;;;2.64;100.00;100155.59;4984284;28;20141;-86
2021/11/25 08:28:22;;;;;;;35.28;20.45;;;4.90;99.90;;;2.69;100.00;100145.28;4986304;28;20740;-86
2021/11/25 08:30:49;;;;;;;33.88;19.42;;;4.90;99.90;;;2.73;100.00;100144.00;4987387;28;20101;-87
2021/11/25 08:33:17;;;;;;;36.05;20.60;;;4.90;99.90;;;2.84;100.00;100131.41;4986421;28;20193;-86
2021/11/25 08:35:44;;;;;;;34.67;20.98;;;4.90;99.90;;;2.88;100.00;100130.13;4984738;28;20043;-87
2021/11/25 08:38:11;;;;;;;38.03;21.55;;;4.90;99.90;;;2.92;100.00;100126.16;4986266;28;20050;-87
2021/11/25 08:40:39;;;;;;;35.35;20.75;;;5.00;99.90;;;3.03;100.00;100127.81;4987547;28;20057;-86
2021/11/25 08:43:06;;;;;;;39.83;21.95;;;5.00;99.90;;;3.07;100.00;100127.38;4987522;28;20070;-86
2021/11/25 08:45:38;;;;;;;39.22;21.30;;;5.10;99.90;;;3.15;100.00;100113.19;4985657;28;20077;-86
2021/11/25 08:48:07;;;;;;;45.60;22.65;;;5.10;99.90;;;3.20;100.00;100115.44;4985496;28;20482;-87
2021/11/25 08:50:34;;;;;;;41.53;20.70;;;5.10;99.90;;;3.21;100.00;100099.16;4969543;28;20488;-86
2021/11/25 08:53:02;;;;;;;39.50;21.90;;;5.20;99.90;;;3.27;100.00;100097.72;5000942;28;20137;-87
2021/11/25 08:55:34;;;;;;;39.63;21.70;;;5.20;99.90;;;3.29;100.00;100101.97;4985268;28;20062;-87
2021/11/25 08:58:02;;;;;;;41.38;22.80;;;5.30;99.90;;;3.32;100.00;100103.53;4986232;28;20039;-87
2021/11/25 09:00:33;;;;;;;39.58;22.17;;;5.30;99.90;;;3.36;100.00;100107.59;4986125;28;20053;-87
2021/11/25 09:03:02;;;;;;;37.97;22.15;;;5.30;99.90;;;3.48;100.00;100106.44;4987787;28;20137;-87
2021/11/25 09:05:30;;;;;;;39.45;22.27;;;5.30;99.90;;;3.58;100.00;100106.38;5001741;28;20062;-87
2021/11/25 09:07:57;;;;;;;39.67;22.38;;;5.40;99.90;;;3.64;100.00;100104.94;4987632;28;20050;-87
2021/11/25 09:10:25;;;;;;;37.28;21.63;;;5.50;99.90;;;3.74;100.00;100104.88;4998857;28;20455;-86
2021/11/25 09:12:53;;;;;;;38.78;21.83;;;5.50;99.90;;;3.72;100.00;100110.41;5001941;28;20061;-87
2021/11/25 09:15:21;;;;;;;37.88;21.35;;;5.50;99.90;;;3.73;100.00;100120.16;4993672;28;20929;-87
2021/11/25 09:17:49;;;;;;;36.10;22.20;;;5.60;99.90;;;3.77;100.00;100116.19;4997111;28;20054;-86
2021/11/25 09:20:17;;;;;;;35.42;21.10;;;5.60;99.90;;;3.82;100.00;100108.50;4984187;28;20116;-86
2021/11/25 09:22:45;;;;;;;37.20;22.13;;;5.60;99.90;;;3.92;100.00;100103.91;4986078;28;20101;-86
2021/11/25 09:25:12;;;;;;;39.00;22.80;;;5.70;99.90;;;3.99;100.00;100100.59;4985241;28;20567;-86
2021/11/25 09:27:40;;;;;;;42.13;23.00;;;5.70;99.80;;;3.87;100.00;100106.19;4984609;28;20420;-86
2021/11/25 09:30:09;;;;;;;44.17;22.98;;;5.70;99.50;;;3.95;100.00;100107.28;4985417;28;20058;-86
2021/11/25 09:32:36;;;;;;;39.08;22.83;;;5.80;99.50;;;3.95;100.00;100104.59;4985357;28;20062;-86
2021/11/25 09:35:04;;;;;;;39.08;22.15;;;5.80;99.30;;;4.01;100.00;100118.28;4986404;28;20066;-87
2021/11/25 09:37:33;;;;;;;39.17;22.50;;;5.80;99.60;;;4.06;100.00;100109.78;4984484;28;20046;-87
2021/11/25 09:40:00;;;;;;;40.38;23.67;;;5.90;99.50;;;4.04;100.00;100119.84;4986627;28;20137;-87
2021/11/25 09:42:28;;;;;;;38.88;23.77;;;6.00;99.20;;;4.09;100.00;100126.47;5000990;28;20074;-86
2021/11/25 09:44:55;;;;;;;41.42;23.10;;;6.00;99.10;;;4.03;100.00;100131.59;4995150;28;20046;-86
2021/11/25 09:47:23;;;;;;;38.17;23.02;;;6.00;98.90;;;4.08;100.00;100140.09;4980406;28;20070;-86
2021/11/25 09:49:51;;;;;;;40.33;23.40;;;6.00;99.00;;;4.09;100.00;100139.94;4984060;28;20042;-86
2021/11/25 09:52:20;;;;;;;37.58;23.63;;;6.00;99.00;;;4.07;100.00;100149.16;4984069;28;20050;-87
2021/11/25 09:54:49;;;;;;;41.20;23.65;;;6.00;98.90;;;4.04;100.00;100152.16;4976949;28;20058;-87
2021/11/25 09:57:18;;;;;;;41.45;24.00;;;6.10;98.80;;;4.12;100.00;100149.53;4999926;28;20046;-87
2021/11/25 09:59:45;;;;;;;41.30;23.65;;;6.10;98.80;;;4.05;100.00;100151.13;4985033;28;20065;-86
2021/11/25 10:02:13;;;;;;;39.92;22.73;;;6.10;98.80;;;4.05;100.00;100151.13;4997191;28;20451;-86
2021/11/25 10:04:40;;;;;;;38.90;22.88;;;6.10;98.70;;;4.15;100.00;100156.47;4973043;28;20049;-89
2021/11/25 10:07:08;;;;;;;38.85;23.63;;;6.10;98.70;;;4.18;100.00;100161.56;4978555;28;20053;-87
2021/11/25 10:09:38;;;;;;;36.53;23.52;;;6.10;98.60;;;4.19;100.00;100153.34;4999114;28;20069;-86
2021/11/25 10:12:34;;;;;;;40.78;24.38;;;6.20;98.80;;;4.22;100.00;100146.78;4998283;28;20421;-86
2021/11/25 10:15:29;;;;;;;38.38;22.67;;;6.20;98.70;;;4.20;100.00;100146.94;4974663;28;20479;-86
2021/11/25 10:17:59;;;;;;;39.92;23.35;;;6.20;98.50;;;4.19;100.00;100139.88;4974951;28;20046;-87
2021/11/25 10:20:36;;;;;;;42.95;24.30;;;6.20;98.50;;;4.18;100.00;100151.63;4975788;28;20491;-86